sensor_id;sensor_type;location;lat;lon;timestamp;P1;durP1;ratioP1;P2;durP2;ratioP2
84133;SDS011;74235;48.688;9.708;2023-11-21T00:00:07;1.73;;;1.48;;
84133;SDS011;74235;48.688;9.708;2023-11-21T00:02:39;1.67;;;1.20;;
84133;SDS011;74235;48.688;9.708;2023-11-21T00:05:08;3.30;;;1.55;;
84133;SDS011;74235;48.688;9.708;2023-11-21T00:07:36;2.10;;;1.35;;
84133;SDS011;74235;48.688;9.708;2023-11-21T00:10:04;2.25;;;1.60;;
84133;SDS011;74235;48.688;9.708;2023-11-21T00:12:33;2.00;;;1.30;;
84133;SDS011;74235;48.688;9.708;2023-11-21T00:15:00;3.60;;;1.50;;
84133;SDS011;74235;48.688;9.708;2023-11-21T00:17:38;1.50;;;1.40;;
84133;SDS011;74235;48.688;9.708;2023-11-21T00:20:06;2.22;;;1.48;;
84133;SDS011;74235;48.688;9.708;2023-11-21T00:22:35;1.33;;;1.13;;
84133;SDS011;74235;48.688;9.708;2023-11-21T00:25:03;1.67;;;1.17;;
84133;SDS011;74235;48.688;9.708;2023-11-21T00:27:31;1.70;;;1.33;;
84133;SDS011;74235;48.688;9.708;2023-11-21T00:32:26;2.28;;;1.08;;
84133;SDS011;74235;48.688;9.708;2023-11-21T00:37:23;0.95;;;0.90;;
84133;SDS011;74235;48.688;9.708;2023-11-21T00:39:51;1.75;;;1.40;;
84133;SDS011;74235;48.688;9.708;2023-11-21T00:42:18;1.35;;;1.15;;
84133;SDS011;74235;48.688;9.708;2023-11-21T00:44:45;1.67;;;1.50;;
84133;SDS011;74235;48.688;9.708;2023-11-21T00:47:13;1.17;;;0.93;;
84133;SDS011;74235;48.688;9.708;2023-11-21T00:52:10;2.53;;;1.33;;
84133;SDS011;74235;48.688;9.708;2023-11-21T00:54:37;1.75;;;1.17;;
84133;SDS011;74235;48.688;9.708;2023-11-21T00:57:05;1.30;;;1.10;;
84133;SDS011;74235;48.688;9.708;2023-11-21T00:59:32;1.92;;;1.08;;
84133;SDS011;74235;48.688;9.708;2023-11-21T01:02:00;2.03;;;1.20;;
84133;SDS011;74235;48.688;9.708;2023-11-21T01:04:28;1.20;;;1.05;;
84133;SDS011;74235;48.688;9.708;2023-11-21T01:06:56;1.65;;;1.10;;
84133;SDS011;74235;48.688;9.708;2023-11-21T01:09:24;2.10;;;1.38;;
84133;SDS011;74235;48.688;9.708;2023-11-21T01:11:52;1.17;;;0.93;;
84133;SDS011;74235;48.688;9.708;2023-11-21T01:14:20;1.63;;;1.05;;
84133;SDS011;74235;48.688;9.708;2023-11-21T01:16:48;2.28;;;0.68;;
84133;SDS011;74235;48.688;9.708;2023-11-21T01:19:16;1.17;;;0.80;;
84133;SDS011;74235;48.688;9.708;2023-11-21T01:21:43;1.10;;;1.00;;
84133;SDS011;74235;48.688;9.708;2023-11-21T01:24:11;1.60;;;1.15;;
84133;SDS011;74235;48.688;9.708;2023-11-21T01:26:40;1.25;;;0.93;;
84133;SDS011;74235;48.688;9.708;2023-11-21T01:29:07;1.15;;;0.80;;
84133;SDS011;74235;48.688;9.708;2023-11-21T01:31:35;1.70;;;1.10;;
84133;SDS011;74235;48.688;9.708;2023-11-21T01:34:02;1.15;;;1.00;;
84133;SDS011;74235;48.688;9.708;2023-11-21T01:38:59;1.23;;;0.85;;
84133;SDS011;74235;48.688;9.708;2023-11-21T01:41:27;1.50;;;0.73;;
84133;SDS011;74235;48.688;9.708;2023-11-21T01:43:59;1.05;;;0.73;;
84133;SDS011;74235;48.688;9.708;2023-11-21T01:46:26;1.35;;;1.25;;
84133;SDS011;74235;48.688;9.708;2023-11-21T01:48:54;1.30;;;0.90;;
84133;SDS011;74235;48.688;9.708;2023-11-21T01:51:21;1.48;;;1.10;;
84133;SDS011;74235;48.688;9.708;2023-11-21T01:53:49;1.05;;;0.77;;
84133;SDS011;74235;48.688;9.708;2023-11-21T01:56:17;0.88;;;0.82;;
84133;SDS011;74235;48.688;9.708;2023-11-21T01:58:45;0.70;;;0.70;;
84133;SDS011;74235;48.688;9.708;2023-11-21T02:01:15;1.58;;;1.08;;
84133;SDS011;74235;48.688;9.708;2023-11-21T02:03:45;0.82;;;0.80;;
84133;SDS011;74235;48.688;9.708;2023-11-21T02:06:13;1.55;;;0.57;;
84133;SDS011;74235;48.688;9.708;2023-11-21T02:08:40;1.30;;;0.95;;
84133;SDS011;74235;48.688;9.708;2023-11-21T02:11:11;1.33;;;1.20;;
84133;SDS011;74235;48.688;9.708;2023-11-21T02:13:40;1.35;;;0.93;;
84133;SDS011;74235;48.688;9.708;2023-11-21T02:16:10;1.45;;;0.90;;
84133;SDS011;74235;48.688;9.708;2023-11-21T02:18:41;1.23;;;1.10;;
84133;SDS011;74235;48.688;9.708;2023-11-21T02:21:09;1.00;;;0.82;;
84133;SDS011;74235;48.688;9.708;2023-11-21T02:23:38;0.98;;;0.80;;
84133;SDS011;74235;48.688;9.708;2023-11-21T02:26:09;0.88;;;0.88;;
84133;SDS011;74235;48.688;9.708;2023-11-21T02:28:37;1.00;;;0.68;;
84133;SDS011;74235;48.688;9.708;2023-11-21T02:31:06;1.02;;;0.90;;
84133;SDS011;74235;48.688;9.708;2023-11-21T02:33:35;1.40;;;0.90;;
84133;SDS011;74235;48.688;9.708;2023-11-21T02:36:02;1.10;;;0.80;;
84133;SDS011;74235;48.688;9.708;2023-11-21T02:38:30;1.02;;;0.90;;
84133;SDS011;74235;48.688;9.708;2023-11-21T02:40:59;0.73;;;0.73;;
84133;SDS011;74235;48.688;9.708;2023-11-21T02:43:27;0.93;;;0.88;;
84133;SDS011;74235;48.688;9.708;2023-11-21T02:45:54;0.70;;;0.68;;
84133;SDS011;74235;48.688;9.708;2023-11-21T02:48:22;1.40;;;1.00;;
84133;SDS011;74235;48.688;9.708;2023-11-21T02:50:52;0.80;;;0.80;;
84133;SDS011;74235;48.688;9.708;2023-11-21T02:53:20;0.80;;;0.73;;
84133;SDS011;74235;48.688;9.708;2023-11-21T02:55:48;0.70;;;0.70;;
84133;SDS011;74235;48.688;9.708;2023-11-21T02:58:17;0.70;;;0.57;;
84133;SDS011;74235;48.688;9.708;2023-11-21T03:00:44;0.82;;;0.80;;
84133;SDS011;74235;48.688;9.708;2023-11-21T03:03:12;0.95;;;0.88;;
84133;SDS011;74235;48.688;9.708;2023-11-21T03:05:40;0.80;;;0.77;;
84133;SDS011;74235;48.688;9.708;2023-11-21T03:08:07;1.90;;;1.30;;
84133;SDS011;74235;48.688;9.708;2023-11-21T03:10:34;1.75;;;0.90;;
84133;SDS011;74235;48.688;9.708;2023-11-21T03:13:02;0.98;;;0.82;;
84133;SDS011;74235;48.688;9.708;2023-11-21T03:15:33;0.80;;;0.63;;
84133;SDS011;74235;48.688;9.708;2023-11-21T03:18:00;0.90;;;0.90;;
84133;SDS011;74235;48.688;9.708;2023-11-21T03:20:29;1.00;;;0.82;;
84133;SDS011;74235;48.688;9.708;2023-11-21T03:22:57;1.17;;;0.93;;
84133;SDS011;74235;48.688;9.708;2023-11-21T03:25:24;1.88;;;1.00;;
84133;SDS011;74235;48.688;9.708;2023-11-21T03:27:52;0.70;;;0.70;;
84133;SDS011;74235;48.688;9.708;2023-11-21T03:30:20;0.80;;;0.80;;
84133;SDS011;74235;48.688;9.708;2023-11-21T03:32:49;0.93;;;0.82;;
84133;SDS011;74235;48.688;9.708;2023-11-21T03:35:17;0.85;;;0.85;;
84133;SDS011;74235;48.688;9.708;2023-11-21T03:37:48;0.75;;;0.75;;
84133;SDS011;74235;48.688;9.708;2023-11-21T03:40:15;1.25;;;0.80;;
84133;SDS011;74235;48.688;9.708;2023-11-21T03:42:43;0.90;;;0.70;;
84133;SDS011;74235;48.688;9.708;2023-11-21T03:45:10;0.88;;;0.52;;
84133;SDS011;74235;48.688;9.708;2023-11-21T03:47:40;1.00;;;0.88;;
84133;SDS011;74235;48.688;9.708;2023-11-21T03:50:10;0.82;;;0.80;;
84133;SDS011;74235;48.688;9.708;2023-11-21T03:52:37;1.33;;;1.17;;
84133;SDS011;74235;48.688;9.708;2023-11-21T03:55:06;0.98;;;0.88;;
84133;SDS011;74235;48.688;9.708;2023-11-21T03:57:33;0.88;;;0.60;;
84133;SDS011;74235;48.688;9.708;2023-11-21T04:00:01;1.25;;;0.73;;
84133;SDS011;74235;48.688;9.708;2023-11-21T04:02:38;0.93;;;0.80;;
84133;SDS011;74235;48.688;9.708;2023-11-21T04:05:07;0.82;;;0.68;;
84133;SDS011;74235;48.688;9.708;2023-11-21T04:07:36;1.45;;;0.95;;
84133;SDS011;74235;48.688;9.708;2023-11-21T04:10:06;0.52;;;0.52;;
84133;SDS011;74235;48.688;9.708;2023-11-21T04:12:36;0.70;;;0.70;;
84133;SDS011;74235;48.688;9.708;2023-11-21T04:15:03;0.80;;;0.80;;
84133;SDS011;74235;48.688;9.708;2023-11-21T04:17:32;0.60;;;0.60;;
84133;SDS011;74235;48.688;9.708;2023-11-21T04:19:59;0.90;;;0.80;;
84133;SDS011;74235;48.688;9.708;2023-11-21T04:22:27;0.57;;;0.57;;
84133;SDS011;74235;48.688;9.708;2023-11-21T04:24:55;0.80;;;0.80;;
84133;SDS011;74235;48.688;9.708;2023-11-21T04:27:23;0.80;;;0.73;;
84133;SDS011;74235;48.688;9.708;2023-11-21T04:29:50;0.95;;;0.82;;
84133;SDS011;74235;48.688;9.708;2023-11-21T04:32:18;1.02;;;0.88;;
84133;SDS011;74235;48.688;9.708;2023-11-21T04:34:45;1.33;;;0.73;;
84133;SDS011;74235;48.688;9.708;2023-11-21T04:37:13;0.75;;;0.70;;
84133;SDS011;74235;48.688;9.708;2023-11-21T04:39:40;0.75;;;0.75;;
84133;SDS011;74235;48.688;9.708;2023-11-21T04:42:09;0.75;;;0.75;;
84133;SDS011;74235;48.688;9.708;2023-11-21T04:44:37;0.95;;;0.77;;
84133;SDS011;74235;48.688;9.708;2023-11-21T04:47:04;0.93;;;0.90;;
84133;SDS011;74235;48.688;9.708;2023-11-21T04:49:32;0.82;;;0.82;;
84133;SDS011;74235;48.688;9.708;2023-11-21T04:52:00;1.50;;;0.90;;
84133;SDS011;74235;48.688;9.708;2023-11-21T04:54:28;0.73;;;0.70;;
84133;SDS011;74235;48.688;9.708;2023-11-21T04:59:25;0.35;;;0.35;;
84133;SDS011;74235;48.688;9.708;2023-11-21T05:01:54;1.48;;;0.60;;
84133;SDS011;74235;48.688;9.708;2023-11-21T05:04:21;1.27;;;0.57;;
84133;SDS011;74235;48.688;9.708;2023-11-21T05:06:49;0.60;;;0.60;;
84133;SDS011;74235;48.688;9.708;2023-11-21T05:09:17;1.02;;;0.85;;
84133;SDS011;74235;48.688;9.708;2023-11-21T05:11:44;1.13;;;0.70;;
84133;SDS011;74235;48.688;9.708;2023-11-21T05:16:42;0.80;;;0.80;;
84133;SDS011;74235;48.688;9.708;2023-11-21T05:19:10;0.98;;;0.70;;
84133;SDS011;74235;48.688;9.708;2023-11-21T05:21:40;0.65;;;0.65;;
84133;SDS011;74235;48.688;9.708;2023-11-21T05:24:07;0.65;;;0.65;;
84133;SDS011;74235;48.688;9.708;2023-11-21T05:26:35;0.82;;;0.50;;
84133;SDS011;74235;48.688;9.708;2023-11-21T05:29:02;1.08;;;0.93;;
84133;SDS011;74235;48.688;9.708;2023-11-21T05:31:30;0.65;;;0.65;;
84133;SDS011;74235;48.688;9.708;2023-11-21T05:33:58;0.70;;;0.70;;
84133;SDS011;74235;48.688;9.708;2023-11-21T05:36:26;0.60;;;0.60;;
84133;SDS011;74235;48.688;9.708;2023-11-21T05:38:53;0.80;;;0.80;;
84133;SDS011;74235;48.688;9.708;2023-11-21T05:41:21;1.60;;;0.73;;
84133;SDS011;74235;48.688;9.708;2023-11-21T05:43:48;1.20;;;1.10;;
84133;SDS011;74235;48.688;9.708;2023-11-21T05:46:16;1.20;;;0.82;;
84133;SDS011;74235;48.688;9.708;2023-11-21T05:48:43;1.45;;;0.93;;
84133;SDS011;74235;48.688;9.708;2023-11-21T05:51:13;0.75;;;0.75;;
84133;SDS011;74235;48.688;9.708;2023-11-21T05:53:41;2.95;;;0.90;;
84133;SDS011;74235;48.688;9.708;2023-11-21T05:56:09;1.85;;;0.80;;
84133;SDS011;74235;48.688;9.708;2023-11-21T05:58:36;1.27;;;0.73;;
84133;SDS011;74235;48.688;9.708;2023-11-21T06:01:05;0.63;;;0.63;;
84133;SDS011;74235;48.688;9.708;2023-11-21T06:03:34;0.68;;;0.68;;
84133;SDS011;74235;48.688;9.708;2023-11-21T06:06:02;1.00;;;0.90;;
84133;SDS011;74235;48.688;9.708;2023-11-21T06:08:32;2.50;;;0.98;;
84133;SDS011;74235;48.688;9.708;2023-11-21T06:11:00;1.15;;;1.05;;
84133;SDS011;74235;48.688;9.708;2023-11-21T06:15:55;1.30;;;1.08;;
84133;SDS011;74235;48.688;9.708;2023-11-21T06:18:23;1.73;;;0.70;;
84133;SDS011;74235;48.688;9.708;2023-11-21T06:20:51;0.65;;;0.65;;
84133;SDS011;74235;48.688;9.708;2023-11-21T06:23:20;1.73;;;1.10;;
84133;SDS011;74235;48.688;9.708;2023-11-21T06:25:49;1.33;;;0.75;;
84133;SDS011;74235;48.688;9.708;2023-11-21T06:28:16;0.80;;;0.80;;
84133;SDS011;74235;48.688;9.708;2023-11-21T06:30:45;1.35;;;1.10;;
84133;SDS011;74235;48.688;9.708;2023-11-21T06:33:12;0.50;;;0.50;;
84133;SDS011;74235;48.688;9.708;2023-11-21T06:35:40;0.85;;;0.70;;
84133;SDS011;74235;48.688;9.708;2023-11-21T06:38:07;1.10;;;0.80;;
84133;SDS011;74235;48.688;9.708;2023-11-21T06:40:36;1.38;;;0.70;;
84133;SDS011;74235;48.688;9.708;2023-11-21T06:45:34;1.23;;;1.10;;
84133;SDS011;74235;48.688;9.708;2023-11-21T06:48:01;1.38;;;1.27;;
84133;SDS011;74235;48.688;9.708;2023-11-21T06:50:29;1.25;;;1.00;;
84133;SDS011;74235;48.688;9.708;2023-11-21T06:52:57;0.88;;;0.80;;
84133;SDS011;74235;48.688;9.708;2023-11-21T06:55:24;1.15;;;0.90;;
84133;SDS011;74235;48.688;9.708;2023-11-21T06:57:52;1.20;;;1.10;;
84133;SDS011;74235;48.688;9.708;2023-11-21T07:00:22;0.98;;;0.90;;
84133;SDS011;74235;48.688;9.708;2023-11-21T07:02:50;1.02;;;0.93;;
84133;SDS011;74235;48.688;9.708;2023-11-21T07:05:17;3.17;;;0.93;;
84133;SDS011;74235;48.688;9.708;2023-11-21T07:07:48;1.70;;;1.02;;
84133;SDS011;74235;48.688;9.708;2023-11-21T07:10:16;1.00;;;0.98;;
84133;SDS011;74235;48.688;9.708;2023-11-21T07:12:44;2.33;;;1.17;;
84133;SDS011;74235;48.688;9.708;2023-11-21T07:15:12;1.35;;;0.82;;
84133;SDS011;74235;48.688;9.708;2023-11-21T07:17:41;0.82;;;0.80;;
84133;SDS011;74235;48.688;9.708;2023-11-21T07:20:09;1.42;;;1.15;;
84133;SDS011;74235;48.688;9.708;2023-11-21T07:22:38;0.80;;;0.80;;
84133;SDS011;74235;48.688;9.708;2023-11-21T07:25:06;1.63;;;1.15;;
84133;SDS011;74235;48.688;9.708;2023-11-21T07:27:34;2.13;;;1.20;;
84133;SDS011;74235;48.688;9.708;2023-11-21T07:30:03;3.33;;;1.00;;
84133;SDS011;74235;48.688;9.708;2023-11-21T07:32:32;2.03;;;1.02;;
84133;SDS011;74235;48.688;9.708;2023-11-21T07:35:02;1.10;;;1.10;;
84133;SDS011;74235;48.688;9.708;2023-11-21T07:37:30;1.17;;;1.00;;
84133;SDS011;74235;48.688;9.708;2023-11-21T07:39:58;1.10;;;1.10;;
84133;SDS011;74235;48.688;9.708;2023-11-21T07:42:26;4.32;;;1.00;;
84133;SDS011;74235;48.688;9.708;2023-11-21T07:44:54;0.93;;;0.73;;
84133;SDS011;74235;48.688;9.708;2023-11-21T07:49:49;1.92;;;1.40;;
84133;SDS011;74235;48.688;9.708;2023-11-21T07:52:18;5.18;;;1.50;;
84133;SDS011;74235;48.688;9.708;2023-11-21T07:54:48;3.10;;;1.73;;
84133;SDS011;74235;48.688;9.708;2023-11-21T07:57:15;1.27;;;1.13;;
84133;SDS011;74235;48.688;9.708;2023-11-21T07:59:43;1.50;;;0.98;;
84133;SDS011;74235;48.688;9.708;2023-11-21T08:02:10;3.90;;;1.00;;
84133;SDS011;74235;48.688;9.708;2023-11-21T08:04:38;1.23;;;1.00;;
84133;SDS011;74235;48.688;9.708;2023-11-21T08:07:06;1.55;;;0.82;;
84133;SDS011;74235;48.688;9.708;2023-11-21T08:09:34;1.00;;;0.85;;
84133;SDS011;74235;48.688;9.708;2023-11-21T08:12:02;1.55;;;1.15;;
84133;SDS011;74235;48.688;9.708;2023-11-21T08:14:31;1.92;;;1.10;;
84133;SDS011;74235;48.688;9.708;2023-11-21T08:16:59;2.22;;;1.00;;
84133;SDS011;74235;48.688;9.708;2023-11-21T08:19:26;1.73;;;1.00;;
84133;SDS011;74235;48.688;9.708;2023-11-21T08:21:54;1.02;;;0.95;;
84133;SDS011;74235;48.688;9.708;2023-11-21T08:24:22;1.38;;;1.15;;
84133;SDS011;74235;48.688;9.708;2023-11-21T08:26:51;0.93;;;0.93;;
84133;SDS011;74235;48.688;9.708;2023-11-21T08:29:19;1.02;;;0.77;;
84133;SDS011;74235;48.688;9.708;2023-11-21T08:31:47;0.98;;;0.88;;
84133;SDS011;74235;48.688;9.708;2023-11-21T08:34:15;1.17;;;1.00;;
84133;SDS011;74235;48.688;9.708;2023-11-21T08:36:43;1.33;;;1.10;;
84133;SDS011;74235;48.688;9.708;2023-11-21T08:39:11;3.72;;;1.02;;
84133;SDS011;74235;48.688;9.708;2023-11-21T08:41:40;2.28;;;1.00;;
84133;SDS011;74235;48.688;9.708;2023-11-21T08:44:09;1.15;;;1.10;;
84133;SDS011;74235;48.688;9.708;2023-11-21T08:46:38;1.48;;;1.10;;
84133;SDS011;74235;48.688;9.708;2023-11-21T08:49:07;1.40;;;1.10;;
84133;SDS011;74235;48.688;9.708;2023-11-21T08:51:34;2.13;;;1.02;;
84133;SDS011;74235;48.688;9.708;2023-11-21T08:54:02;1.65;;;0.75;;
84133;SDS011;74235;48.688;9.708;2023-11-21T08:56:31;2.40;;;1.05;;
84133;SDS011;74235;48.688;9.708;2023-11-21T08:58:59;1.15;;;0.98;;
84133;SDS011;74235;48.688;9.708;2023-11-21T09:01:30;0.82;;;0.82;;
84133;SDS011;74235;48.688;9.708;2023-11-21T09:03:59;1.13;;;0.95;;
84133;SDS011;74235;48.688;9.708;2023-11-21T09:06:26;0.85;;;0.85;;
84133;SDS011;74235;48.688;9.708;2023-11-21T09:08:54;1.42;;;1.30;;
84133;SDS011;74235;48.688;9.708;2023-11-21T09:11:21;2.53;;;0.82;;
84133;SDS011;74235;48.688;9.708;2023-11-21T09:13:49;0.93;;;0.88;;
84133;SDS011;74235;48.688;9.708;2023-11-21T09:16:16;1.00;;;1.00;;
84133;SDS011;74235;48.688;9.708;2023-11-21T09:18:45;1.27;;;1.00;;
84133;SDS011;74235;48.688;9.708;2023-11-21T09:21:13;1.65;;;1.02;;
84133;SDS011;74235;48.688;9.708;2023-11-21T09:23:42;1.02;;;0.80;;
84133;SDS011;74235;48.688;9.708;2023-11-21T09:26:11;1.02;;;0.95;;
84133;SDS011;74235;48.688;9.708;2023-11-21T09:28:39;0.80;;;0.80;;
84133;SDS011;74235;48.688;9.708;2023-11-21T09:33:36;3.55;;;1.15;;
84133;SDS011;74235;48.688;9.708;2023-11-21T09:36:10;1.45;;;1.20;;
84133;SDS011;74235;48.688;9.708;2023-11-21T09:38:38;2.92;;;1.08;;
84133;SDS011;74235;48.688;9.708;2023-11-21T09:41:06;1.67;;;1.20;;
84133;SDS011;74235;48.688;9.708;2023-11-21T09:43:44;0.98;;;0.98;;
84133;SDS011;74235;48.688;9.708;2023-11-21T09:46:14;1.23;;;1.13;;
84133;SDS011;74235;48.688;9.708;2023-11-21T09:48:47;2.10;;;0.85;;
84133;SDS011;74235;48.688;9.708;2023-11-21T09:51:20;1.83;;;0.95;;
84133;SDS011;74235;48.688;9.708;2023-11-21T09:53:51;0.95;;;0.90;;
84133;SDS011;74235;48.688;9.708;2023-11-21T09:56:21;1.20;;;1.10;;
84133;SDS011;74235;48.688;9.708;2023-11-21T09:58:52;1.13;;;0.98;;
84133;SDS011;74235;48.688;9.708;2023-11-21T10:01:20;1.50;;;0.90;;
84133;SDS011;74235;48.688;9.708;2023-11-21T10:03:48;2.65;;;0.98;;
84133;SDS011;74235;48.688;9.708;2023-11-21T10:08:45;1.63;;;1.00;;
84133;SDS011;74235;48.688;9.708;2023-11-21T10:11:22;0.85;;;0.85;;
84133;SDS011;74235;48.688;9.708;2023-11-21T10:13:52;1.35;;;1.00;;
84133;SDS011;74235;48.688;9.708;2023-11-21T10:16:21;1.20;;;0.93;;
84133;SDS011;74235;48.688;9.708;2023-11-21T10:18:53;1.00;;;0.85;;
84133;SDS011;74235;48.688;9.708;2023-11-21T10:21:37;1.15;;;0.90;;
84133;SDS011;74235;48.688;9.708;2023-11-21T10:24:07;1.15;;;1.00;;
84133;SDS011;74235;48.688;9.708;2023-11-21T10:26:35;1.17;;;1.02;;
84133;SDS011;74235;48.688;9.708;2023-11-21T10:29:19;1.27;;;1.17;;
84133;SDS011;74235;48.688;9.708;2023-11-21T10:31:49;1.48;;;0.90;;
84133;SDS011;74235;48.688;9.708;2023-11-21T10:34:18;1.08;;;0.98;;
84133;SDS011;74235;48.688;9.708;2023-11-21T10:36:46;2.38;;;0.88;;
84133;SDS011;74235;48.688;9.708;2023-11-21T10:39:16;1.45;;;1.10;;
84133;SDS011;74235;48.688;9.708;2023-11-21T10:41:47;0.70;;;0.70;;
84133;SDS011;74235;48.688;9.708;2023-11-21T10:44:15;2.10;;;0.82;;
84133;SDS011;74235;48.688;9.708;2023-11-21T10:46:51;1.10;;;1.00;;
84133;SDS011;74235;48.688;9.708;2023-11-21T10:49:24;1.75;;;1.23;;
84133;SDS011;74235;48.688;9.708;2023-11-21T10:51:53;0.70;;;0.70;;
84133;SDS011;74235;48.688;9.708;2023-11-21T10:54:23;1.02;;;0.85;;
84133;SDS011;74235;48.688;9.708;2023-11-21T10:56:53;1.10;;;0.70;;
84133;SDS011;74235;48.688;9.708;2023-11-21T10:59:24;2.15;;;0.93;;
84133;SDS011;74235;48.688;9.708;2023-11-21T11:01:55;2.05;;;1.35;;
84133;SDS011;74235;48.688;9.708;2023-11-21T11:04:25;0.93;;;0.85;;
84133;SDS011;74235;48.688;9.708;2023-11-21T11:06:55;0.82;;;0.82;;
84133;SDS011;74235;48.688;9.708;2023-11-21T11:09:26;2.33;;;1.10;;
84133;SDS011;74235;48.688;9.708;2023-11-21T11:11:54;1.35;;;1.20;;
84133;SDS011;74235;48.688;9.708;2023-11-21T11:16:53;2.17;;;1.00;;
84133;SDS011;74235;48.688;9.708;2023-11-21T11:19:22;1.05;;;0.90;;
84133;SDS011;74235;48.688;9.708;2023-11-21T11:21:54;1.98;;;1.10;;
84133;SDS011;74235;48.688;9.708;2023-11-21T11:24:40;1.88;;;0.95;;
84133;SDS011;74235;48.688;9.708;2023-11-21T11:27:20;1.60;;;1.00;;
84133;SDS011;74235;48.688;9.708;2023-11-21T11:29:59;1.52;;;1.02;;
84133;SDS011;74235;48.688;9.708;2023-11-21T11:32:40;0.80;;;0.80;;
84133;SDS011;74235;48.688;9.708;2023-11-21T11:35:17;0.70;;;0.70;;
84133;SDS011;74235;48.688;9.708;2023-11-21T11:37:50;1.17;;;1.02;;
84133;SDS011;74235;48.688;9.708;2023-11-21T11:40:19;1.25;;;0.93;;
84133;SDS011;74235;48.688;9.708;2023-11-21T11:42:55;1.00;;;0.90;;
84133;SDS011;74235;48.688;9.708;2023-11-21T11:45:26;1.52;;;1.08;;
84133;SDS011;74235;48.688;9.708;2023-11-21T11:48:01;1.10;;;1.00;;
84133;SDS011;74235;48.688;9.708;2023-11-21T11:50:30;0.85;;;0.85;;
84133;SDS011;74235;48.688;9.708;2023-11-21T11:53:11;1.15;;;0.93;;
84133;SDS011;74235;48.688;9.708;2023-11-21T11:55:41;1.10;;;1.00;;
84133;SDS011;74235;48.688;9.708;2023-11-21T11:58:09;1.10;;;1.00;;
84133;SDS011;74235;48.688;9.708;2023-11-21T12:00:38;0.93;;;0.93;;
84133;SDS011;74235;48.688;9.708;2023-11-21T12:03:08;1.58;;;0.60;;
84133;SDS011;74235;48.688;9.708;2023-11-21T12:05:37;0.60;;;0.60;;
84133;SDS011;74235;48.688;9.708;2023-11-21T12:08:08;0.77;;;0.77;;
84133;SDS011;74235;48.688;9.708;2023-11-21T12:10:37;0.93;;;0.70;;
84133;SDS011;74235;48.688;9.708;2023-11-21T12:13:08;0.55;;;0.55;;
84133;SDS011;74235;48.688;9.708;2023-11-21T12:15:39;1.02;;;0.93;;
84133;SDS011;74235;48.688;9.708;2023-11-21T12:18:08;2.08;;;0.70;;
84133;SDS011;74235;48.688;9.708;2023-11-21T12:20:37;0.60;;;0.60;;
84133;SDS011;74235;48.688;9.708;2023-11-21T12:23:08;0.70;;;0.70;;
84133;SDS011;74235;48.688;9.708;2023-11-21T12:25:37;0.40;;;0.40;;
84133;SDS011;74235;48.688;9.708;2023-11-21T12:28:08;1.35;;;0.90;;
84133;SDS011;74235;48.688;9.708;2023-11-21T12:30:36;0.80;;;0.70;;
84133;SDS011;74235;48.688;9.708;2023-11-21T12:33:06;0.73;;;0.68;;
84133;SDS011;74235;48.688;9.708;2023-11-21T12:35:36;0.68;;;0.68;;
84133;SDS011;74235;48.688;9.708;2023-11-21T12:38:05;1.15;;;0.85;;
84133;SDS011;74235;48.688;9.708;2023-11-21T12:40:32;0.68;;;0.60;;
84133;SDS011;74235;48.688;9.708;2023-11-21T12:45:33;0.93;;;0.60;;
84133;SDS011;74235;48.688;9.708;2023-11-21T12:48:01;0.70;;;0.70;;
84133;SDS011;74235;48.688;9.708;2023-11-21T12:50:34;0.63;;;0.63;;
84133;SDS011;74235;48.688;9.708;2023-11-21T12:53:04;0.75;;;0.75;;
84133;SDS011;74235;48.688;9.708;2023-11-21T12:55:36;0.50;;;0.50;;
84133;SDS011;74235;48.688;9.708;2023-11-21T12:58:07;0.70;;;0.70;;
84133;SDS011;74235;48.688;9.708;2023-11-21T13:00:40;0.55;;;0.55;;
84133;SDS011;74235;48.688;9.708;2023-11-21T13:03:10;0.90;;;0.90;;
84133;SDS011;74235;48.688;9.708;2023-11-21T13:05:40;0.68;;;0.68;;
84133;SDS011;74235;48.688;9.708;2023-11-21T13:08:14;0.57;;;0.55;;
84133;SDS011;74235;48.688;9.708;2023-11-21T13:10:48;2.20;;;1.23;;
84133;SDS011;74235;48.688;9.708;2023-11-21T13:13:17;1.38;;;0.93;;
84133;SDS011;74235;48.688;9.708;2023-11-21T13:15:52;0.98;;;0.80;;
84133;SDS011;74235;48.688;9.708;2023-11-21T13:18:23;1.52;;;0.90;;
84133;SDS011;74235;48.688;9.708;2023-11-21T13:20:54;2.47;;;1.13;;
84133;SDS011;74235;48.688;9.708;2023-11-21T13:23:22;0.93;;;0.70;;
84133;SDS011;74235;48.688;9.708;2023-11-21T13:25:50;1.02;;;0.80;;
84133;SDS011;74235;48.688;9.708;2023-11-21T13:28:28;1.67;;;1.10;;
84133;SDS011;74235;48.688;9.708;2023-11-21T13:31:01;1.00;;;0.90;;
84133;SDS011;74235;48.688;9.708;2023-11-21T13:33:37;0.73;;;0.73;;
84133;SDS011;74235;48.688;9.708;2023-11-21T13:36:06;1.00;;;0.70;;
84133;SDS011;74235;48.688;9.708;2023-11-21T13:38:38;0.70;;;0.70;;
84133;SDS011;74235;48.688;9.708;2023-11-21T13:41:10;1.17;;;1.02;;
84133;SDS011;74235;48.688;9.708;2023-11-21T13:43:39;2.97;;;1.10;;
84133;SDS011;74235;48.688;9.708;2023-11-21T13:46:12;0.88;;;0.88;;
84133;SDS011;74235;48.688;9.708;2023-11-21T13:48:48;1.75;;;0.88;;
84133;SDS011;74235;48.688;9.708;2023-11-21T13:51:23;3.67;;;1.08;;
84133;SDS011;74235;48.688;9.708;2023-11-21T13:54:17;0.77;;;0.75;;
84133;SDS011;74235;48.688;9.708;2023-11-21T13:56:47;0.80;;;0.75;;
84133;SDS011;74235;48.688;9.708;2023-11-21T13:59:16;1.02;;;0.90;;
84133;SDS011;74235;48.688;9.708;2023-11-21T14:01:56;2.17;;;1.00;;
84133;SDS011;74235;48.688;9.708;2023-11-21T14:04:28;2.83;;;1.02;;
84133;SDS011;74235;48.688;9.708;2023-11-21T14:07:06;0.73;;;0.73;;
84133;SDS011;74235;48.688;9.708;2023-11-21T14:09:53;1.00;;;0.90;;
84133;SDS011;74235;48.688;9.708;2023-11-21T14:12:20;0.80;;;0.80;;
84133;SDS011;74235;48.688;9.708;2023-11-21T14:14:48;0.80;;;0.80;;
84133;SDS011;74235;48.688;9.708;2023-11-21T14:17:17;0.75;;;0.75;;
84133;SDS011;74235;48.688;9.708;2023-11-21T14:19:44;0.80;;;0.80;;
84133;SDS011;74235;48.688;9.708;2023-11-21T14:24:39;0.80;;;0.80;;
84133;SDS011;74235;48.688;9.708;2023-11-21T14:27:13;0.73;;;0.73;;
84133;SDS011;74235;48.688;9.708;2023-11-21T14:29:44;0.73;;;0.73;;
84133;SDS011;74235;48.688;9.708;2023-11-21T14:32:12;0.85;;;0.70;;
84133;SDS011;74235;48.688;9.708;2023-11-21T14:34:42;1.27;;;0.55;;
84133;SDS011;74235;48.688;9.708;2023-11-21T14:37:14;0.73;;;0.73;;
84133;SDS011;74235;48.688;9.708;2023-11-21T14:39:41;0.77;;;0.73;;
84133;SDS011;74235;48.688;9.708;2023-11-21T14:42:13;0.43;;;0.43;;
84133;SDS011;74235;48.688;9.708;2023-11-21T14:44:43;0.73;;;0.70;;
84133;SDS011;74235;48.688;9.708;2023-11-21T14:47:11;1.10;;;0.75;;
84133;SDS011;74235;48.688;9.708;2023-11-21T14:49:45;0.80;;;0.80;;
84133;SDS011;74235;48.688;9.708;2023-11-21T14:52:23;0.65;;;0.65;;
84133;SDS011;74235;48.688;9.708;2023-11-21T14:55:05;1.10;;;1.10;;
84133;SDS011;74235;48.688;9.708;2023-11-21T14:57:48;1.10;;;0.90;;
84133;SDS011;74235;48.688;9.708;2023-11-21T15:00:19;1.20;;;1.10;;
84133;SDS011;74235;48.688;9.708;2023-11-21T15:03:08;1.70;;;1.50;;
84133;SDS011;74235;48.688;9.708;2023-11-21T15:05:38;1.70;;;1.20;;
84133;SDS011;74235;48.688;9.708;2023-11-21T15:08:07;3.22;;;1.30;;
84133;SDS011;74235;48.688;9.708;2023-11-21T15:10:48;6.50;;;1.80;;
84133;SDS011;74235;48.688;9.708;2023-11-21T15:15:52;5.00;;;1.80;;
84133;SDS011;74235;48.688;9.708;2023-11-21T15:18:21;2.42;;;1.67;;
84133;SDS011;74235;48.688;9.708;2023-11-21T15:20:51;6.13;;;1.90;;
84133;SDS011;74235;48.688;9.708;2023-11-21T15:23:24;2.47;;;1.75;;
84133;SDS011;74235;48.688;9.708;2023-11-21T15:25:51;3.10;;;1.92;;
84133;SDS011;74235;48.688;9.708;2023-11-21T15:28:19;2.60;;;1.67;;
84133;SDS011;74235;48.688;9.708;2023-11-21T15:30:47;2.40;;;2.15;;
84133;SDS011;74235;48.688;9.708;2023-11-21T15:33:18;5.85;;;1.70;;
84133;SDS011;74235;48.688;9.708;2023-11-21T15:35:45;7.55;;;1.95;;
84133;SDS011;74235;48.688;9.708;2023-11-21T15:38:14;4.82;;;1.80;;